createdAt,value
2022-11-19T00:01:24.652Z,4.00
2022-11-19T00:03:53.149Z,4.43
2022-11-19T00:06:26.087Z,5.07
2022-11-19T00:08:53.437Z,5.50
2022-11-19T00:11:46.767Z,5.10
2022-11-19T00:14:15.263Z,5.37
2022-11-19T00:16:44.168Z,6.50
2022-11-19T00:19:11.781Z,4.73
2022-11-19T00:21:38.886Z,4.67
2022-11-19T00:24:06.389Z,4.77
2022-11-19T00:26:33.426Z,4.00
2022-11-19T00:29:00.325Z,4.37
2022-11-19T00:31:27.513Z,3.40
2022-11-19T00:33:54.923Z,3.63
2022-11-19T00:36:22.436Z,4.00
2022-11-19T00:38:49.475Z,4.10
2022-11-19T00:41:16.439Z,4.03
2022-11-19T00:43:50.141Z,3.40
2022-11-19T00:46:17.130Z,3.03
2022-11-19T00:48:44.543Z,3.90
2022-11-19T00:51:12.270Z,3.57
2022-11-19T00:53:39.295Z,3.73
2022-11-19T00:56:11.991Z,3.30
2022-11-19T00:58:39.669Z,3.77
2022-11-19T01:01:08.458Z,3.23
2022-11-19T01:03:36.408Z,3.17
2022-11-19T01:06:03.477Z,3.27
2022-11-19T01:08:30.595Z,3.37
2022-11-19T01:11:05.473Z,3.20
2022-11-19T01:13:35.135Z,3.00
2022-11-19T01:16:09.059Z,2.93
2022-11-19T01:18:37.701Z,3.50
2022-11-19T01:21:06.019Z,3.13
2022-11-19T01:23:34.061Z,2.67
2022-11-19T01:26:01.596Z,2.80
2022-11-19T01:28:28.962Z,2.20
2022-11-19T01:30:56.064Z,1.83
2022-11-19T01:33:23.080Z,1.83
2022-11-19T01:36:00.849Z,1.90
2022-11-19T01:38:29.148Z,1.97
2022-11-19T01:40:57.819Z,2.10
2022-11-19T01:43:41.201Z,1.90
2022-11-19T01:46:09.065Z,1.93
2022-11-19T01:48:39.476Z,2.10
2022-11-19T01:51:10.239Z,2.40
2022-11-19T01:53:38.366Z,1.90
2022-11-19T01:56:08.095Z,2.20
2022-11-19T01:58:40.407Z,2.50
2022-11-19T02:01:09.404Z,1.80
2022-11-19T02:03:38.652Z,2.20
2022-11-19T02:06:06.912Z,2.70
2022-11-19T02:08:36.096Z,2.63
2022-11-19T02:11:15.255Z,1.93
2022-11-19T02:14:02.702Z,2.20
2022-11-19T02:16:56.411Z,2.43
2022-11-19T02:19:40.299Z,2.60
2022-11-19T02:22:29.731Z,2.10
2022-11-19T02:25:09.653Z,2.13
2022-11-19T02:28:01.065Z,2.23
2022-11-19T02:30:46.620Z,2.13
2022-11-19T02:33:19.522Z,2.20
2022-11-19T02:36:21.325Z,2.10
2022-11-19T02:39:13.394Z,2.27
2022-11-19T02:41:50.125Z,2.10
2022-11-19T02:44:52.565Z,1.90
2022-11-19T02:47:23.759Z,2.00
2022-11-19T02:49:56.351Z,2.00
2022-11-19T02:52:23.431Z,1.90
2022-11-19T02:54:50.355Z,2.43
2022-11-19T02:57:17.281Z,2.17
2022-11-19T03:00:20.949Z,1.90
2022-11-19T03:03:13.143Z,1.87
2022-11-19T03:05:44.996Z,2.07
2022-11-19T03:08:12.091Z,2.00
2022-11-19T03:11:08.547Z,2.00
2022-11-19T03:14:09.949Z,1.60
2022-11-19T03:16:42.043Z,1.73
2022-11-19T03:19:30.538Z,1.70
2022-11-19T03:22:20.241Z,1.70
2022-11-19T03:24:56.368Z,1.57
2022-11-19T03:27:28.082Z,2.17
2022-11-19T03:29:58.195Z,2.00
2022-11-19T03:32:31.363Z,2.50
2022-11-19T03:35:02.566Z,1.87
2022-11-19T03:37:33.319Z,1.80
2022-11-19T03:40:03.019Z,1.73
2022-11-19T03:42:31.504Z,1.57
2022-11-19T03:45:14.651Z,1.90
2022-11-19T03:47:43.348Z,1.90
2022-11-19T03:50:37.967Z,2.40
2022-11-19T03:53:05.331Z,2.10
2022-11-19T03:55:37.847Z,2.10
2022-11-19T03:58:06.482Z,2.03
2022-11-19T04:00:34.088Z,2.30
2022-11-19T04:03:01.101Z,2.30
2022-11-19T04:05:28.032Z,2.10
2022-11-19T04:07:55.114Z,2.07
2022-11-19T04:10:22.161Z,2.53
2022-11-19T04:12:49.148Z,2.20
2022-11-19T04:15:16.455Z,2.27
2022-11-19T04:17:43.470Z,2.23
2022-11-19T04:20:10.621Z,2.53
2022-11-19T04:22:37.692Z,2.13
2022-11-19T04:25:05.047Z,2.80
2022-11-19T04:27:32.071Z,2.50
2022-11-19T04:29:59.010Z,2.70
2022-11-19T04:32:26.044Z,2.57
2022-11-19T04:34:52.981Z,2.47
2022-11-19T04:37:19.950Z,2.80
2022-11-19T04:39:46.963Z,2.90
2022-11-19T04:42:13.966Z,3.07
2022-11-19T04:44:40.995Z,2.27
2022-11-19T04:47:07.945Z,2.60
2022-11-19T04:49:34.863Z,2.90
2022-11-19T04:52:01.796Z,2.50
2022-11-19T04:54:29.062Z,2.90
2022-11-19T04:56:55.992Z,2.67
2022-11-19T04:59:23.036Z,2.47
2022-11-19T05:01:50.012Z,2.90
2022-11-19T05:04:17.055Z,2.80
2022-11-19T05:06:44.077Z,3.13
2022-11-19T05:09:11.062Z,3.07
2022-11-19T05:11:38.092Z,3.00
2022-11-19T05:14:04.986Z,2.90
2022-11-19T05:16:31.977Z,2.90
2022-11-19T05:18:58.880Z,3.20
2022-11-19T05:21:25.911Z,3.47
2022-11-19T05:23:53.283Z,3.60
2022-11-19T05:26:20.225Z,3.00
2022-11-19T05:28:47.191Z,2.90
2022-11-19T05:31:14.186Z,3.50
2022-11-19T05:33:41.188Z,2.87
2022-11-19T05:36:08.449Z,2.77
2022-11-19T05:38:35.477Z,2.90
2022-11-19T05:41:02.444Z,2.77
2022-11-19T05:43:29.472Z,3.03
2022-11-19T05:46:00.768Z,2.50
2022-11-19T05:48:27.822Z,3.30
2022-11-19T05:50:55.012Z,2.97
2022-11-19T05:53:21.919Z,2.83
2022-11-19T05:55:48.973Z,3.10
2022-11-19T05:58:15.887Z,2.80
2022-11-19T06:00:42.958Z,2.80
2022-11-19T06:03:10.987Z,2.40
2022-11-19T06:05:40.459Z,3.67
2022-11-19T06:08:08.199Z,2.90
2022-11-19T06:10:35.097Z,2.80
2022-11-19T06:13:02.139Z,4.83
2022-11-19T06:15:29.071Z,2.60
2022-11-19T06:17:59.125Z,3.77
2022-11-19T06:20:26.160Z,4.13
2022-11-19T06:22:53.218Z,2.50
2022-11-19T06:25:20.395Z,2.53
2022-11-19T06:27:47.754Z,2.90
2022-11-19T06:30:16.232Z,7.50
2022-11-19T06:32:44.068Z,2.90
2022-11-19T06:35:13.113Z,5.37
2022-11-19T06:37:41.160Z,2.77
2022-11-19T06:40:08.726Z,2.20
2022-11-19T06:42:38.409Z,2.40
2022-11-19T06:45:13.984Z,2.10
2022-11-19T06:47:42.717Z,2.00
2022-11-19T06:50:10.958Z,1.90
2022-11-19T06:52:38.205Z,2.37
2022-11-19T06:55:05.646Z,1.87
2022-11-19T06:57:32.567Z,2.10
2022-11-19T06:59:59.562Z,1.80
2022-11-19T07:02:26.807Z,2.10
2022-11-19T07:04:53.725Z,2.00
2022-11-19T07:07:21.681Z,1.97
2022-11-19T07:09:48.734Z,2.20
2022-11-19T07:12:16.186Z,1.80
2022-11-19T07:14:43.200Z,2.00
2022-11-19T07:17:10.356Z,1.57
2022-11-19T07:19:37.618Z,2.33
2022-11-19T07:22:04.670Z,1.73
2022-11-19T07:24:31.612Z,1.50
2022-11-19T07:26:58.713Z,1.80
2022-11-19T07:29:25.715Z,1.90
2022-11-19T07:31:54.355Z,1.80
2022-11-19T07:34:22.154Z,2.10
2022-11-19T07:36:50.225Z,2.17
2022-11-19T07:39:17.995Z,4.00
2022-11-19T07:42:03.803Z,2.20
2022-11-19T07:44:30.712Z,1.80
2022-11-19T07:46:57.685Z,1.83
2022-11-19T07:49:26.127Z,2.60
2022-11-19T07:51:53.880Z,2.20
2022-11-19T07:54:21.057Z,1.77
2022-11-19T07:56:48.006Z,1.83
2022-11-19T07:59:15.040Z,2.00
2022-11-19T08:01:42.164Z,3.87
2022-11-19T08:04:09.347Z,2.53
2022-11-19T08:06:36.379Z,2.30
2022-11-19T08:09:05.605Z,4.10
2022-11-19T08:11:32.666Z,2.23
2022-11-19T08:14:01.621Z,2.20
2022-11-19T08:16:47.984Z,1.97
2022-11-19T08:19:16.352Z,2.27
2022-11-19T08:21:45.711Z,8.57
2022-11-19T08:24:13.894Z,3.63
2022-11-19T08:26:42.769Z,2.13
2022-11-19T08:29:15.986Z,6.50
2022-11-19T08:31:45.245Z,2.57
2022-11-19T08:34:12.541Z,5.33
2022-11-19T08:36:39.819Z,2.10
2022-11-19T08:39:07.047Z,1.90
2022-11-19T08:41:52.496Z,2.40
2022-11-19T08:44:20.000Z,1.60
2022-11-19T08:46:47.380Z,1.90
2022-11-19T08:49:14.903Z,1.90
2022-11-19T08:51:41.833Z,2.00
2022-11-19T08:54:09.463Z,1.97
2022-11-19T08:56:36.509Z,2.00
2022-11-19T08:59:03.632Z,2.33
2022-11-19T09:01:31.037Z,1.97
2022-11-19T09:03:58.787Z,1.87
2022-11-19T09:06:25.929Z,3.67
2022-11-19T09:08:53.122Z,2.47
2022-11-19T09:11:21.379Z,3.50
2022-11-19T09:13:49.052Z,3.80
2022-11-19T09:16:16.631Z,17.20
2022-11-19T09:18:43.655Z,2.97
2022-11-19T09:21:11.886Z,3.80
2022-11-19T09:23:40.106Z,2.40
2022-11-19T09:26:11.006Z,2.60
2022-11-19T09:28:38.021Z,3.27
2022-11-19T09:31:08.267Z,6.80
2022-11-19T09:33:37.648Z,4.60
2022-11-19T09:36:05.289Z,4.00
2022-11-19T09:38:34.925Z,3.13
2022-11-19T09:41:32.896Z,2.73
2022-11-19T09:44:24.794Z,3.93
2022-11-19T09:47:13.132Z,2.50
2022-11-19T09:50:08.957Z,2.73
2022-11-19T09:52:43.095Z,3.03
2022-11-19T09:55:20.846Z,3.00
2022-11-19T09:57:54.939Z,2.50
2022-11-19T10:00:28.744Z,2.87
2022-11-19T10:02:57.920Z,3.40
2022-11-19T10:05:40.929Z,68.77
2022-11-19T10:08:34.508Z,73.33
2022-11-19T10:11:01.391Z,96.00
2022-11-19T10:13:46.834Z,90.90
2022-11-19T10:16:50.569Z,61.80
2022-11-19T10:19:41.527Z,9.83
2022-11-19T10:22:11.443Z,53.90
2022-11-19T10:24:50.024Z,19.30
2022-11-19T10:27:23.380Z,6.53
2022-11-19T10:29:54.959Z,2.77
2022-11-19T10:32:38.032Z,19.40
2022-11-19T10:35:16.684Z,5.23
2022-11-19T10:38:02.068Z,6.53
2022-11-19T10:40:37.105Z,23.50
2022-11-19T10:43:48.877Z,7.67
2022-11-19T10:46:19.294Z,17.93
2022-11-19T10:48:57.720Z,5.10
2022-11-19T10:51:33.665Z,7.07
2022-11-19T10:54:04.572Z,4.37
2022-11-19T10:56:40.941Z,3.30
2022-11-19T10:59:25.438Z,3.63
2022-11-19T11:02:13.202Z,23.77
2022-11-19T11:05:00.792Z,3.93
2022-11-19T11:07:57.927Z,3.20
2022-11-19T11:10:44.194Z,3.23
2022-11-19T11:13:48.703Z,13.33
2022-11-19T11:16:26.706Z,3.10
2022-11-19T11:18:56.488Z,2.87
2022-11-19T11:21:34.537Z,3.47
2022-11-19T11:24:04.467Z,3.73
2022-11-19T11:26:36.803Z,3.07
2022-11-19T11:29:25.457Z,3.27
2022-11-19T11:31:53.839Z,4.80
2022-11-19T11:34:23.839Z,9.90
2022-11-19T11:36:51.341Z,5.53
2022-11-19T11:39:55.331Z,4.63
2022-11-19T11:42:26.542Z,4.37
2022-11-19T11:45:00.032Z,4.47
2022-11-19T11:47:29.501Z,3.73
2022-11-19T11:50:01.827Z,4.67
2022-11-19T11:52:35.172Z,4.50
2022-11-19T11:55:06.243Z,7.50
2022-11-19T11:57:35.583Z,5.63
2022-11-19T12:00:24.366Z,6.33
2022-11-19T12:03:15.924Z,6.60
2022-11-19T12:06:09.248Z,5.17
2022-11-19T12:08:56.850Z,4.60
2022-11-19T12:11:54.344Z,4.63
2022-11-19T12:14:57.795Z,4.90
2022-11-19T12:17:36.505Z,4.53
2022-11-19T12:20:29.995Z,4.93
2022-11-19T12:23:02.923Z,5.90
2022-11-19T12:25:55.636Z,5.20
2022-11-19T12:28:22.538Z,5.57
2022-11-19T12:30:55.303Z,4.80
2022-11-19T12:33:29.068Z,5.97
2022-11-19T12:36:27.143Z,6.13
2022-11-19T12:39:03.380Z,6.00
2022-11-19T12:41:51.082Z,10.97
2022-11-19T12:44:52.909Z,11.00
2022-11-19T12:47:58.501Z,15.50
2022-11-19T12:50:31.578Z,8.17
2022-11-19T12:53:20.357Z,7.10
2022-11-19T12:55:55.835Z,12.10
2022-11-19T12:58:41.397Z,6.27
2022-11-19T13:01:21.922Z,5.70
2022-11-19T13:04:07.145Z,5.77
2022-11-19T13:07:03.027Z,5.73
2022-11-19T13:09:54.722Z,5.70
2022-11-19T13:12:26.690Z,7.40
2022-11-19T13:15:08.227Z,5.53
2022-11-19T13:17:51.041Z,5.70
2022-11-19T13:20:41.246Z,5.23
2022-11-19T13:23:19.248Z,5.40
2022-11-19T13:25:56.447Z,5.00
2022-11-19T13:28:47.698Z,5.40
2022-11-19T13:31:36.697Z,5.67
2022-11-19T13:34:17.057Z,5.63
2022-11-19T13:36:59.891Z,7.57
2022-11-19T13:39:36.038Z,6.33
2022-11-19T13:42:24.284Z,5.40
2022-11-19T13:44:52.134Z,5.90
2022-11-19T13:47:29.051Z,5.57
2022-11-19T13:50:28.322Z,10.27
2022-11-19T13:52:55.271Z,5.17
2022-11-19T13:55:32.812Z,6.90
2022-11-19T13:58:14.586Z,5.93
2022-11-19T14:00:54.366Z,5.63
2022-11-19T14:03:39.879Z,6.67
2022-11-19T14:06:09.524Z,8.33
2022-11-19T14:08:39.474Z,16.07
2022-11-19T14:11:31.811Z,9.20
2022-11-19T14:14:04.735Z,7.87
2022-11-19T14:17:10.120Z,7.43
2022-11-19T14:20:13.805Z,15.47
2022-11-19T14:23:13.825Z,7.47
2022-11-19T14:26:02.409Z,10.47
2022-11-19T14:28:41.247Z,13.40
2022-11-19T14:31:08.705Z,6.77
2022-11-19T14:33:49.294Z,14.37
2022-11-19T14:36:42.787Z,8.27
2022-11-19T14:39:18.653Z,5.90
2022-11-19T14:41:46.270Z,6.90
2022-11-19T14:44:25.368Z,5.80
2022-11-19T14:46:52.532Z,4.00
2022-11-19T14:49:27.795Z,4.93
2022-11-19T14:51:56.816Z,6.00
2022-11-19T14:54:52.389Z,4.77
2022-11-19T14:57:38.381Z,4.63
2022-11-19T15:00:14.960Z,5.10
2022-11-19T15:02:46.833Z,4.77
2022-11-19T15:05:16.823Z,4.33
2022-11-19T15:07:51.251Z,4.37
2022-11-19T15:10:27.648Z,3.97
2022-11-19T15:13:19.441Z,4.57
2022-11-19T15:15:49.114Z,8.97
2022-11-19T15:18:45.282Z,5.20
2022-11-19T15:21:15.099Z,7.23
2022-11-19T15:23:58.527Z,4.30
2022-11-19T15:26:49.721Z,4.10
2022-11-19T15:29:44.831Z,4.30
2022-11-19T15:32:23.801Z,4.33
2022-11-19T15:35:27.879Z,4.53
2022-11-19T15:38:09.520Z,4.20
2022-11-19T15:40:37.555Z,4.47
2022-11-19T15:43:04.445Z,4.70
2022-11-19T15:45:45.191Z,4.07
2022-11-19T15:48:27.803Z,3.87
2022-11-19T15:50:54.989Z,4.40
2022-11-19T15:53:24.152Z,4.60
2022-11-19T15:56:05.769Z,5.03
2022-11-19T15:58:35.511Z,4.17
2022-11-19T16:01:03.018Z,4.50
2022-11-19T16:03:32.417Z,5.53
2022-11-19T16:06:04.987Z,5.00
2022-11-19T16:08:32.966Z,4.37
2022-11-19T16:11:20.800Z,4.23
2022-11-19T16:14:11.071Z,4.37
2022-11-19T16:16:57.800Z,4.40
2022-11-19T16:19:25.025Z,4.57
2022-11-19T16:21:57.508Z,4.67
2022-11-19T16:24:44.995Z,5.57
2022-11-19T16:27:18.654Z,5.63
2022-11-19T16:29:46.617Z,6.40
2022-11-19T16:32:25.958Z,7.00
2022-11-19T16:34:52.915Z,7.00
2022-11-19T16:37:22.159Z,8.03
2022-11-19T16:39:52.354Z,7.73
2022-11-19T16:42:26.647Z,8.50
2022-11-19T16:45:06.407Z,7.30
2022-11-19T16:47:39.713Z,10.37
2022-11-19T16:50:07.993Z,10.80
2022-11-19T16:52:38.941Z,8.60
2022-11-19T16:55:26.370Z,9.27
2022-11-19T16:58:18.973Z,9.80
2022-11-19T17:00:49.075Z,8.30
2022-11-19T17:03:23.684Z,9.20
2022-11-19T17:05:52.721Z,7.87
2022-11-19T17:08:31.861Z,8.57
2022-11-19T17:11:37.877Z,9.13
2022-11-19T17:14:20.681Z,8.53
2022-11-19T17:16:49.997Z,9.43
2022-11-19T17:19:25.891Z,9.63
2022-11-19T17:22:00.565Z,9.60
2022-11-19T17:24:34.337Z,9.43
2022-11-19T17:27:01.344Z,13.43
2022-11-19T17:29:28.330Z,13.23
2022-11-19T17:31:56.556Z,9.47
2022-11-19T17:34:42.711Z,9.37
2022-11-19T17:37:09.849Z,8.77
2022-11-19T17:39:36.843Z,10.53
2022-11-19T17:42:22.988Z,9.53
2022-11-19T17:44:50.085Z,23.30
2022-11-19T17:47:23.119Z,16.37
2022-11-19T17:49:51.468Z,10.70
2022-11-19T17:52:26.587Z,9.90
2022-11-19T17:54:57.173Z,12.07
2022-11-19T17:57:24.377Z,10.77
2022-11-19T17:59:51.365Z,61.77
2022-11-19T18:02:21.891Z,40.53
2022-11-19T18:04:49.007Z,14.50
2022-11-19T18:07:16.195Z,10.97
2022-11-19T18:09:43.214Z,10.73
2022-11-19T18:12:18.868Z,9.97
2022-11-19T18:14:46.875Z,10.90
2022-11-19T18:17:15.264Z,10.70
2022-11-19T18:19:42.591Z,11.07
2022-11-19T18:22:19.003Z,9.60
2022-11-19T18:24:50.428Z,10.27
2022-11-19T18:27:17.748Z,10.37
2022-11-19T18:29:44.973Z,11.23
2022-11-19T18:32:15.354Z,10.63
2022-11-19T18:34:42.759Z,10.53
2022-11-19T18:37:09.887Z,10.57
2022-11-19T18:39:37.062Z,11.00
2022-11-19T18:42:04.232Z,10.20
2022-11-19T18:44:33.954Z,11.20
2022-11-19T18:47:06.091Z,10.87
2022-11-19T18:49:35.842Z,11.13
2022-11-19T18:52:05.048Z,10.97
2022-11-19T18:54:32.515Z,11.07
2022-11-19T18:56:59.655Z,11.07
2022-11-19T18:59:26.666Z,12.17
2022-11-19T19:01:55.900Z,11.93
2022-11-19T19:04:24.143Z,11.73
2022-11-19T19:06:51.391Z,11.87
2022-11-19T19:09:22.309Z,12.20
2022-11-19T19:12:12.986Z,12.10
2022-11-19T19:14:41.754Z,12.07
2022-11-19T19:17:08.773Z,11.97
2022-11-19T19:19:35.843Z,12.47
2022-11-19T19:22:02.833Z,12.30
2022-11-19T19:24:31.507Z,11.10
2022-11-19T19:26:59.526Z,11.93
2022-11-19T19:29:26.657Z,11.67
2022-11-19T19:31:53.924Z,11.57
2022-11-19T19:34:20.851Z,12.83
2022-11-19T19:36:52.950Z,11.33
2022-11-19T19:39:21.140Z,11.63
2022-11-19T19:41:49.405Z,11.90
2022-11-19T19:44:16.721Z,12.57
2022-11-19T19:46:43.828Z,11.47
2022-11-19T19:49:10.791Z,11.80
2022-11-19T19:51:37.816Z,11.53
2022-11-19T19:54:04.973Z,11.83
2022-11-19T19:56:33.114Z,11.40
2022-11-19T19:59:01.265Z,11.10
2022-11-19T20:01:31.291Z,11.00
2022-11-19T20:04:11.951Z,10.27
2022-11-19T20:06:43.688Z,10.07
2022-11-19T20:09:10.618Z,10.60
2022-11-19T20:11:38.568Z,10.07
2022-11-19T20:14:05.712Z,8.77
2022-11-19T20:16:34.038Z,9.63
2022-11-19T20:19:01.829Z,10.60
2022-11-19T20:21:34.274Z,11.20
2022-11-19T20:24:01.339Z,10.83
2022-11-19T20:26:30.631Z,11.30
2022-11-19T20:28:59.750Z,11.20
2022-11-19T20:31:27.792Z,11.13
2022-11-19T20:33:57.236Z,11.20
2022-11-19T20:36:25.844Z,10.63
2022-11-19T20:38:53.068Z,11.57
2022-11-19T20:41:39.983Z,11.30
2022-11-19T20:44:20.346Z,10.90
2022-11-19T20:46:51.920Z,10.50
2022-11-19T20:49:21.489Z,9.47
2022-11-19T20:51:49.160Z,10.00
2022-11-19T20:54:16.727Z,10.57
2022-11-19T20:56:43.748Z,10.03
2022-11-19T20:59:12.409Z,9.40
2022-11-19T21:01:39.768Z,9.93
2022-11-19T21:04:07.056Z,9.83
2022-11-19T21:06:35.082Z,10.07
2022-11-19T21:09:02.224Z,10.07
2022-11-19T21:11:29.316Z,9.77
2022-11-19T21:13:56.556Z,9.10
2022-11-19T21:16:25.749Z,9.10
2022-11-19T21:18:52.975Z,8.23
2022-11-19T21:21:21.248Z,8.50
2022-11-19T21:23:48.523Z,7.73
2022-11-19T21:26:23.817Z,8.37
2022-11-19T21:28:53.321Z,7.80
2022-11-19T21:31:39.233Z,8.27
2022-11-19T21:34:12.161Z,7.33
2022-11-19T21:36:39.971Z,8.60
2022-11-19T21:39:08.362Z,8.03
2022-11-19T21:41:35.798Z,7.73
2022-11-19T21:44:04.182Z,7.73
2022-11-19T21:46:31.249Z,7.70
2022-11-19T21:48:58.332Z,8.30
2022-11-19T21:51:25.569Z,7.33
2022-11-19T21:53:59.014Z,7.97
2022-11-19T21:56:27.516Z,7.73
2022-11-19T21:58:54.534Z,7.90
2022-11-19T22:01:21.810Z,7.90
2022-11-19T22:03:49.175Z,7.93
2022-11-19T22:06:16.542Z,7.77
2022-11-19T22:08:44.032Z,8.37
2022-11-19T22:11:30.919Z,7.57
2022-11-19T22:14:04.290Z,8.23
2022-11-19T22:16:34.100Z,8.37
2022-11-19T22:19:01.363Z,8.50
2022-11-19T22:21:31.993Z,7.87
2022-11-19T22:23:59.084Z,8.00
2022-11-19T22:26:26.690Z,8.67
2022-11-19T22:28:53.981Z,8.50
2022-11-19T22:31:21.142Z,9.40
2022-11-19T22:33:49.814Z,8.30
2022-11-19T22:36:17.116Z,9.83
2022-11-19T22:38:44.520Z,9.60
2022-11-19T22:41:17.124Z,8.97
2022-11-19T22:43:44.527Z,8.50
2022-11-19T22:46:12.884Z,8.70
2022-11-19T22:48:40.687Z,8.37
2022-11-19T22:51:22.446Z,10.80
2022-11-19T22:53:51.096Z,10.60
2022-11-19T22:56:20.827Z,15.13
2022-11-19T22:58:48.413Z,9.90
2022-11-19T23:01:18.646Z,8.97
2022-11-19T23:03:46.751Z,8.47
2022-11-19T23:06:13.837Z,8.70
2022-11-19T23:08:41.021Z,8.77
2022-11-19T23:11:08.380Z,7.87
2022-11-19T23:13:39.331Z,7.87
2022-11-19T23:16:18.858Z,9.27
2022-11-19T23:18:53.085Z,7.63
2022-11-19T23:21:26.168Z,21.27
2022-11-19T23:23:53.823Z,13.23
2022-11-19T23:26:27.993Z,9.00
2022-11-19T23:28:55.584Z,16.00
2022-11-19T23:31:28.620Z,8.30
2022-11-19T23:33:59.245Z,7.40
2022-11-19T23:36:32.826Z,8.13
2022-11-19T23:39:00.363Z,7.90
2022-11-19T23:41:28.042Z,8.03
2022-11-19T23:43:56.066Z,8.37
2022-11-19T23:46:25.742Z,8.30
2022-11-19T23:48:54.679Z,8.30
2022-11-19T23:51:36.725Z,9.27
2022-11-19T23:54:05.197Z,8.43
2022-11-19T23:56:35.844Z,8.40
2022-11-19T23:59:04.461Z,7.70
